Terminal Aerodrome Forecast
Issued by NWS

Home | Current Version | Previous Version | Graphics & Text | Print | Product List | Glossary Off
Versions: 1 2 3 4 5 6 7 8 9 10 11 12 13 14 15 16 17 18

000
FTUS41 KCLE 170529
TAFFDY
TAF
KFDY 170529Z 1706/1806 11005KT P6SM BKN250
      TEMPO 1709/1713 4SM BR
     FM171500 16007KT P6SM BKN200
     FM172000 19008KT P6SM VCSH SCT060 OVC100
     FM180500 20008KT 6SM BR VCSH BKN020 OVC035=

USA.gov is the U.S. government's official web portal to all federal, state and local government web resources and services.